sensor_id;sensor_type;location;lat;lon;timestamp;P1;durP1;ratioP1;P2;durP2;ratioP2
20036;SDS011;10179;42.640;23.312;2023-12-14T00:01:36;17.10;;;9.13;;
20036;SDS011;10179;42.640;23.312;2023-12-14T00:04:04;18.60;;;9.75;;
20036;SDS011;10179;42.640;23.312;2023-12-14T00:06:30;17.23;;;9.90;;
20036;SDS011;10179;42.640;23.312;2023-12-14T00:08:55;16.38;;;9.25;;
20036;SDS011;10179;42.640;23.312;2023-12-14T00:11:20;16.90;;;8.82;;
20036;SDS011;10179;42.640;23.312;2023-12-14T00:13:46;18.88;;;9.70;;
20036;SDS011;10179;42.640;23.312;2023-12-14T00:16:11;18.67;;;9.77;;
20036;SDS011;10179;42.640;23.312;2023-12-14T00:18:37;20.98;;;9.68;;
20036;SDS011;10179;42.640;23.312;2023-12-14T00:21:02;18.50;;;9.30;;
20036;SDS011;10179;42.640;23.312;2023-12-14T00:23:28;17.95;;;10.10;;
20036;SDS011;10179;42.640;23.312;2023-12-14T00:25:54;15.35;;;9.98;;
20036;SDS011;10179;42.640;23.312;2023-12-14T00:28:19;16.55;;;8.73;;
20036;SDS011;10179;42.640;23.312;2023-12-14T00:30:44;16.98;;;9.75;;
20036;SDS011;10179;42.640;23.312;2023-12-14T00:33:10;17.88;;;9.75;;
20036;SDS011;10179;42.640;23.312;2023-12-14T00:35:35;20.10;;;10.98;;
20036;SDS011;10179;42.640;23.312;2023-12-14T00:38:01;20.33;;;10.57;;
20036;SDS011;10179;42.640;23.312;2023-12-14T00:40:26;22.02;;;10.25;;
20036;SDS011;10179;42.640;23.312;2023-12-14T00:42:51;17.63;;;10.10;;
20036;SDS011;10179;42.640;23.312;2023-12-14T00:45:17;18.77;;;9.93;;
20036;SDS011;10179;42.640;23.312;2023-12-14T00:47:42;18.52;;;10.25;;
20036;SDS011;10179;42.640;23.312;2023-12-14T00:50:08;21.08;;;10.73;;
20036;SDS011;10179;42.640;23.312;2023-12-14T00:52:34;17.52;;;9.60;;
20036;SDS011;10179;42.640;23.312;2023-12-14T00:54:59;22.85;;;11.15;;
20036;SDS011;10179;42.640;23.312;2023-12-14T00:57:24;19.83;;;10.20;;
20036;SDS011;10179;42.640;23.312;2023-12-14T00:59:50;21.50;;;9.80;;
20036;SDS011;10179;42.640;23.312;2023-12-14T01:02:15;17.20;;;10.27;;
20036;SDS011;10179;42.640;23.312;2023-12-14T01:04:41;17.10;;;9.65;;
20036;SDS011;10179;42.640;23.312;2023-12-14T01:07:07;18.13;;;9.73;;
20036;SDS011;10179;42.640;23.312;2023-12-14T01:09:32;17.95;;;9.68;;
20036;SDS011;10179;42.640;23.312;2023-12-14T01:11:58;22.67;;;9.68;;
20036;SDS011;10179;42.640;23.312;2023-12-14T01:14:23;17.10;;;9.60;;
20036;SDS011;10179;42.640;23.312;2023-12-14T01:16:49;15.93;;;8.93;;
20036;SDS011;10179;42.640;23.312;2023-12-14T01:19:14;21.40;;;10.63;;
20036;SDS011;10179;42.640;23.312;2023-12-14T01:21:39;15.88;;;9.63;;
20036;SDS011;10179;42.640;23.312;2023-12-14T01:24:05;18.20;;;10.25;;
20036;SDS011;10179;42.640;23.312;2023-12-14T01:26:30;14.75;;;8.15;;
20036;SDS011;10179;42.640;23.312;2023-12-14T01:28:56;19.08;;;9.68;;
20036;SDS011;10179;42.640;23.312;2023-12-14T01:31:21;18.40;;;9.70;;
20036;SDS011;10179;42.640;23.312;2023-12-14T01:33:49;19.65;;;9.93;;
20036;SDS011;10179;42.640;23.312;2023-12-14T01:36:22;15.40;;;8.90;;
20036;SDS011;10179;42.640;23.312;2023-12-14T01:38:48;16.20;;;8.48;;
20036;SDS011;10179;42.640;23.312;2023-12-14T01:41:14;15.63;;;8.57;;
20036;SDS011;10179;42.640;23.312;2023-12-14T01:43:39;14.75;;;8.18;;
20036;SDS011;10179;42.640;23.312;2023-12-14T01:46:05;15.73;;;8.18;;
20036;SDS011;10179;42.640;23.312;2023-12-14T01:48:30;14.35;;;7.88;;
20036;SDS011;10179;42.640;23.312;2023-12-14T01:50:55;13.70;;;7.97;;
20036;SDS011;10179;42.640;23.312;2023-12-14T01:53:21;14.13;;;8.23;;
20036;SDS011;10179;42.640;23.312;2023-12-14T01:55:47;12.25;;;7.43;;
20036;SDS011;10179;42.640;23.312;2023-12-14T01:58:12;13.07;;;7.68;;
20036;SDS011;10179;42.640;23.312;2023-12-14T02:03:24;13.90;;;6.20;;
20036;SDS011;10179;42.640;23.312;2023-12-14T02:05:50;13.10;;;7.05;;
20036;SDS011;10179;42.640;23.312;2023-12-14T02:08:15;10.40;;;5.80;;
20036;SDS011;10179;42.640;23.312;2023-12-14T02:10:41;12.70;;;6.07;;
20036;SDS011;10179;42.640;23.312;2023-12-14T02:13:06;16.73;;;8.48;;
20036;SDS011;10179;42.640;23.312;2023-12-14T02:15:32;17.38;;;7.63;;
20036;SDS011;10179;42.640;23.312;2023-12-14T02:17:58;17.65;;;6.95;;
20036;SDS011;10179;42.640;23.312;2023-12-14T02:20:23;15.35;;;7.57;;
20036;SDS011;10179;42.640;23.312;2023-12-14T02:22:54;14.52;;;6.97;;
20036;SDS011;10179;42.640;23.312;2023-12-14T02:25:21;14.75;;;6.90;;
20036;SDS011;10179;42.640;23.312;2023-12-14T02:27:48;12.80;;;6.00;;
20036;SDS011;10179;42.640;23.312;2023-12-14T02:30:14;10.75;;;5.70;;
20036;SDS011;10179;42.640;23.312;2023-12-14T02:32:40;10.40;;;6.05;;
20036;SDS011;10179;42.640;23.312;2023-12-14T02:35:06;10.13;;;6.03;;
20036;SDS011;10179;42.640;23.312;2023-12-14T02:37:33;11.27;;;6.07;;
20036;SDS011;10179;42.640;23.312;2023-12-14T02:39:59;11.48;;;6.38;;
20036;SDS011;10179;42.640;23.312;2023-12-14T02:42:25;10.38;;;6.25;;
20036;SDS011;10179;42.640;23.312;2023-12-14T02:44:51;10.65;;;6.07;;
20036;SDS011;10179;42.640;23.312;2023-12-14T02:47:19;10.30;;;5.63;;
20036;SDS011;10179;42.640;23.312;2023-12-14T02:49:44;11.55;;;5.93;;
20036;SDS011;10179;42.640;23.312;2023-12-14T02:52:09;9.43;;;5.70;;
20036;SDS011;10179;42.640;23.312;2023-12-14T02:54:36;9.15;;;5.82;;
20036;SDS011;10179;42.640;23.312;2023-12-14T02:57:04;9.35;;;5.45;;
20036;SDS011;10179;42.640;23.312;2023-12-14T02:59:29;9.98;;;5.32;;
20036;SDS011;10179;42.640;23.312;2023-12-14T03:01:54;9.02;;;5.30;;
20036;SDS011;10179;42.640;23.312;2023-12-14T03:04:20;8.50;;;5.28;;
20036;SDS011;10179;42.640;23.312;2023-12-14T03:06:45;13.57;;;5.95;;
20036;SDS011;10179;42.640;23.312;2023-12-14T03:09:11;11.02;;;5.90;;
20036;SDS011;10179;42.640;23.312;2023-12-14T03:11:36;11.27;;;5.78;;
20036;SDS011;10179;42.640;23.312;2023-12-14T03:14:01;12.98;;;6.20;;
20036;SDS011;10179;42.640;23.312;2023-12-14T03:16:27;11.77;;;6.38;;
20036;SDS011;10179;42.640;23.312;2023-12-14T03:18:52;13.80;;;6.18;;
20036;SDS011;10179;42.640;23.312;2023-12-14T03:21:19;13.07;;;5.95;;
20036;SDS011;10179;42.640;23.312;2023-12-14T03:23:44;12.27;;;5.90;;
20036;SDS011;10179;42.640;23.312;2023-12-14T03:26:10;13.02;;;6.35;;
20036;SDS011;10179;42.640;23.312;2023-12-14T03:28:36;10.25;;;5.75;;
20036;SDS011;10179;42.640;23.312;2023-12-14T03:31:02;10.90;;;5.15;;
20036;SDS011;10179;42.640;23.312;2023-12-14T03:33:28;9.85;;;5.20;;
20036;SDS011;10179;42.640;23.312;2023-12-14T03:35:54;11.05;;;4.47;;
20036;SDS011;10179;42.640;23.312;2023-12-14T03:38:20;9.85;;;4.72;;
20036;SDS011;10179;42.640;23.312;2023-12-14T03:40:45;8.43;;;4.63;;
20036;SDS011;10179;42.640;23.312;2023-12-14T03:43:10;7.75;;;4.55;;
20036;SDS011;10179;42.640;23.312;2023-12-14T03:45:36;7.20;;;3.75;;
20036;SDS011;10179;42.640;23.312;2023-12-14T03:48:01;8.40;;;4.30;;
20036;SDS011;10179;42.640;23.312;2023-12-14T03:50:26;7.75;;;3.80;;
20036;SDS011;10179;42.640;23.312;2023-12-14T03:52:53;9.38;;;4.30;;
20036;SDS011;10179;42.640;23.312;2023-12-14T03:55:18;7.07;;;4.15;;
20036;SDS011;10179;42.640;23.312;2023-12-14T03:57:44;7.68;;;4.30;;
20036;SDS011;10179;42.640;23.312;2023-12-14T04:00:09;7.70;;;4.53;;
20036;SDS011;10179;42.640;23.312;2023-12-14T04:02:36;9.38;;;4.18;;
20036;SDS011;10179;42.640;23.312;2023-12-14T04:05:01;6.97;;;4.32;;
20036;SDS011;10179;42.640;23.312;2023-12-14T04:07:26;9.70;;;4.25;;
20036;SDS011;10179;42.640;23.312;2023-12-14T04:09:52;6.97;;;4.35;;
20036;SDS011;10179;42.640;23.312;2023-12-14T04:12:17;6.32;;;3.75;;
20036;SDS011;10179;42.640;23.312;2023-12-14T04:14:43;7.15;;;4.43;;
20036;SDS011;10179;42.640;23.312;2023-12-14T04:17:09;7.22;;;4.70;;
20036;SDS011;10179;42.640;23.312;2023-12-14T04:19:35;4.28;;;2.95;;
20036;SDS011;10179;42.640;23.312;2023-12-14T04:22:03;8.93;;;5.00;;
20036;SDS011;10179;42.640;23.312;2023-12-14T04:24:29;7.65;;;4.68;;
20036;SDS011;10179;42.640;23.312;2023-12-14T04:26:55;8.32;;;4.72;;
20036;SDS011;10179;42.640;23.312;2023-12-14T04:29:20;9.45;;;4.85;;
20036;SDS011;10179;42.640;23.312;2023-12-14T04:31:46;7.18;;;4.70;;
20036;SDS011;10179;42.640;23.312;2023-12-14T04:34:11;7.15;;;4.32;;
20036;SDS011;10179;42.640;23.312;2023-12-14T04:36:40;8.75;;;4.00;;
20036;SDS011;10179;42.640;23.312;2023-12-14T04:39:06;7.38;;;4.90;;
20036;SDS011;10179;42.640;23.312;2023-12-14T04:41:31;7.47;;;4.75;;
20036;SDS011;10179;42.640;23.312;2023-12-14T04:43:57;9.00;;;4.97;;
20036;SDS011;10179;42.640;23.312;2023-12-14T04:46:22;8.73;;;4.40;;
20036;SDS011;10179;42.640;23.312;2023-12-14T04:48:47;8.15;;;4.25;;
20036;SDS011;10179;42.640;23.312;2023-12-14T04:51:13;8.30;;;5.10;;
20036;SDS011;10179;42.640;23.312;2023-12-14T04:53:38;8.57;;;4.85;;
20036;SDS011;10179;42.640;23.312;2023-12-14T04:56:04;6.60;;;4.47;;
20036;SDS011;10179;42.640;23.312;2023-12-14T04:58:31;11.20;;;5.57;;
20036;SDS011;10179;42.640;23.312;2023-12-14T05:00:56;9.43;;;5.60;;
20036;SDS011;10179;42.640;23.312;2023-12-14T05:03:21;8.60;;;4.68;;
20036;SDS011;10179;42.640;23.312;2023-12-14T05:05:47;8.50;;;4.53;;
20036;SDS011;10179;42.640;23.312;2023-12-14T05:08:12;6.57;;;4.35;;
20036;SDS011;10179;42.640;23.312;2023-12-14T05:10:37;8.73;;;4.78;;
20036;SDS011;10179;42.640;23.312;2023-12-14T05:13:03;7.80;;;4.57;;
20036;SDS011;10179;42.640;23.312;2023-12-14T05:15:28;7.82;;;5.40;;
20036;SDS011;10179;42.640;23.312;2023-12-14T05:17:54;10.88;;;4.82;;
20036;SDS011;10179;42.640;23.312;2023-12-14T05:20:19;9.48;;;5.00;;
20036;SDS011;10179;42.640;23.312;2023-12-14T05:22:45;9.10;;;5.05;;
20036;SDS011;10179;42.640;23.312;2023-12-14T05:25:11;9.50;;;5.30;;
20036;SDS011;10179;42.640;23.312;2023-12-14T05:27:36;7.22;;;4.95;;
20036;SDS011;10179;42.640;23.312;2023-12-14T05:30:01;12.80;;;5.65;;
20036;SDS011;10179;42.640;23.312;2023-12-14T05:32:28;9.55;;;5.30;;
20036;SDS011;10179;42.640;23.312;2023-12-14T05:34:54;10.77;;;5.97;;
20036;SDS011;10179;42.640;23.312;2023-12-14T05:37:19;12.73;;;7.25;;
20036;SDS011;10179;42.640;23.312;2023-12-14T05:39:44;14.90;;;7.00;;
20036;SDS011;10179;42.640;23.312;2023-12-14T05:42:10;8.23;;;5.18;;
20036;SDS011;10179;42.640;23.312;2023-12-14T05:44:36;9.05;;;5.97;;
20036;SDS011;10179;42.640;23.312;2023-12-14T05:47:01;9.40;;;6.03;;
20036;SDS011;10179;42.640;23.312;2023-12-14T05:49:27;10.25;;;5.30;;
20036;SDS011;10179;42.640;23.312;2023-12-14T05:51:52;7.10;;;4.63;;
20036;SDS011;10179;42.640;23.312;2023-12-14T05:54:18;7.80;;;4.57;;
20036;SDS011;10179;42.640;23.312;2023-12-14T05:56:44;9.38;;;4.38;;
20036;SDS011;10179;42.640;23.312;2023-12-14T05:59:09;4.13;;;2.30;;
20036;SDS011;10179;42.640;23.312;2023-12-14T06:01:34;9.25;;;6.28;;
20036;SDS011;10179;42.640;23.312;2023-12-14T06:04:00;12.02;;;6.88;;
20036;SDS011;10179;42.640;23.312;2023-12-14T06:06:25;13.40;;;6.65;;
20036;SDS011;10179;42.640;23.312;2023-12-14T06:08:51;12.00;;;6.13;;
20036;SDS011;10179;42.640;23.312;2023-12-14T06:11:16;9.07;;;4.90;;
20036;SDS011;10179;42.640;23.312;2023-12-14T06:13:42;10.18;;;5.05;;
20036;SDS011;10179;42.640;23.312;2023-12-14T06:16:07;9.70;;;5.72;;
20036;SDS011;10179;42.640;23.312;2023-12-14T06:18:37;9.52;;;5.07;;
20036;SDS011;10179;42.640;23.312;2023-12-14T06:21:04;19.63;;;9.10;;
20036;SDS011;10179;42.640;23.312;2023-12-14T06:23:30;12.80;;;6.80;;
20036;SDS011;10179;42.640;23.312;2023-12-14T06:25:55;11.80;;;6.40;;
20036;SDS011;10179;42.640;23.312;2023-12-14T06:28:21;7.00;;;5.28;;
20036;SDS011;10179;42.640;23.312;2023-12-14T06:30:46;9.07;;;5.15;;
20036;SDS011;10179;42.640;23.312;2023-12-14T06:33:11;9.77;;;5.22;;
20036;SDS011;10179;42.640;23.312;2023-12-14T06:35:37;10.68;;;5.10;;
20036;SDS011;10179;42.640;23.312;2023-12-14T06:38:02;8.32;;;4.78;;
20036;SDS011;10179;42.640;23.312;2023-12-14T06:40:27;8.95;;;5.50;;
20036;SDS011;10179;42.640;23.312;2023-12-14T06:42:53;8.55;;;5.60;;
20036;SDS011;10179;42.640;23.312;2023-12-14T06:45:18;10.00;;;5.43;;
20036;SDS011;10179;42.640;23.312;2023-12-14T06:47:43;15.57;;;8.77;;
20036;SDS011;10179;42.640;23.312;2023-12-14T06:50:11;10.80;;;6.45;;
20036;SDS011;10179;42.640;23.312;2023-12-14T06:52:38;16.05;;;9.27;;
20036;SDS011;10179;42.640;23.312;2023-12-14T06:55:03;8.38;;;4.45;;
20036;SDS011;10179;42.640;23.312;2023-12-14T06:57:29;10.98;;;5.45;;
20036;SDS011;10179;42.640;23.312;2023-12-14T06:59:55;12.40;;;7.85;;
20036;SDS011;10179;42.640;23.312;2023-12-14T07:02:20;10.93;;;7.32;;
20036;SDS011;10179;42.640;23.312;2023-12-14T07:04:45;11.40;;;6.85;;
20036;SDS011;10179;42.640;23.312;2023-12-14T07:07:11;9.40;;;6.22;;
20036;SDS011;10179;42.640;23.312;2023-12-14T07:09:38;9.35;;;5.40;;
20036;SDS011;10179;42.640;23.312;2023-12-14T07:12:03;14.43;;;8.10;;
20036;SDS011;10179;42.640;23.312;2023-12-14T07:14:29;10.20;;;6.55;;
20036;SDS011;10179;42.640;23.312;2023-12-14T07:16:54;10.85;;;5.68;;
20036;SDS011;10179;42.640;23.312;2023-12-14T07:19:19;20.75;;;5.57;;
20036;SDS011;10179;42.640;23.312;2023-12-14T07:21:45;8.13;;;5.13;;
20036;SDS011;10179;42.640;23.312;2023-12-14T07:24:10;8.50;;;4.13;;
20036;SDS011;10179;42.640;23.312;2023-12-14T07:26:36;10.68;;;5.47;;
20036;SDS011;10179;42.640;23.312;2023-12-14T07:29:01;7.18;;;4.30;;
20036;SDS011;10179;42.640;23.312;2023-12-14T07:31:26;6.88;;;4.53;;
20036;SDS011;10179;42.640;23.312;2023-12-14T07:33:54;6.25;;;4.53;;
20036;SDS011;10179;42.640;23.312;2023-12-14T07:36:20;10.60;;;5.15;;
20036;SDS011;10179;42.640;23.312;2023-12-14T07:38:47;9.07;;;4.78;;
20036;SDS011;10179;42.640;23.312;2023-12-14T07:41:13;7.38;;;4.65;;
20036;SDS011;10179;42.640;23.312;2023-12-14T07:43:38;7.25;;;4.72;;
20036;SDS011;10179;42.640;23.312;2023-12-14T07:46:03;9.07;;;4.57;;
20036;SDS011;10179;42.640;23.312;2023-12-14T07:48:29;9.30;;;6.13;;
20036;SDS011;10179;42.640;23.312;2023-12-14T07:50:54;6.95;;;3.78;;
20036;SDS011;10179;42.640;23.312;2023-12-14T07:53:20;5.57;;;3.83;;
20036;SDS011;10179;42.640;23.312;2023-12-14T07:55:46;7.85;;;4.13;;
20036;SDS011;10179;42.640;23.312;2023-12-14T07:58:11;8.50;;;5.22;;
20036;SDS011;10179;42.640;23.312;2023-12-14T08:00:38;6.50;;;4.18;;
20036;SDS011;10179;42.640;23.312;2023-12-14T08:03:03;7.30;;;4.47;;
20036;SDS011;10179;42.640;23.312;2023-12-14T08:05:28;8.27;;;4.40;;
20036;SDS011;10179;42.640;23.312;2023-12-14T08:07:54;6.82;;;4.28;;
20036;SDS011;10179;42.640;23.312;2023-12-14T08:10:20;9.68;;;4.97;;
20036;SDS011;10179;42.640;23.312;2023-12-14T08:12:45;7.68;;;4.40;;
20036;SDS011;10179;42.640;23.312;2023-12-14T08:15:12;7.97;;;5.07;;
20036;SDS011;10179;42.640;23.312;2023-12-14T08:17:38;9.90;;;4.78;;
20036;SDS011;10179;42.640;23.312;2023-12-14T08:20:03;10.88;;;4.93;;
20036;SDS011;10179;42.640;23.312;2023-12-14T08:22:33;6.93;;;4.03;;
20036;SDS011;10179;42.640;23.312;2023-12-14T08:24:59;12.07;;;4.38;;
20036;SDS011;10179;42.640;23.312;2023-12-14T08:27:24;10.75;;;4.88;;
20036;SDS011;10179;42.640;23.312;2023-12-14T08:29:50;11.63;;;4.38;;
20036;SDS011;10179;42.640;23.312;2023-12-14T08:32:15;11.43;;;4.25;;
20036;SDS011;10179;42.640;23.312;2023-12-14T08:34:40;14.27;;;4.22;;
20036;SDS011;10179;42.640;23.312;2023-12-14T08:37:06;9.93;;;4.70;;
20036;SDS011;10179;42.640;23.312;2023-12-14T08:39:31;17.65;;;4.50;;
20036;SDS011;10179;42.640;23.312;2023-12-14T08:41:56;10.68;;;4.75;;
20036;SDS011;10179;42.640;23.312;2023-12-14T08:44:22;8.13;;;4.25;;
20036;SDS011;10179;42.640;23.312;2023-12-14T08:46:47;7.28;;;4.30;;
20036;SDS011;10179;42.640;23.312;2023-12-14T08:49:14;6.85;;;4.00;;
20036;SDS011;10179;42.640;23.312;2023-12-14T08:51:41;6.80;;;4.00;;
20036;SDS011;10179;42.640;23.312;2023-12-14T08:54:07;7.45;;;4.25;;
20036;SDS011;10179;42.640;23.312;2023-12-14T08:56:33;9.10;;;4.47;;
20036;SDS011;10179;42.640;23.312;2023-12-14T08:58:58;10.98;;;4.22;;
20036;SDS011;10179;42.640;23.312;2023-12-14T09:01:25;7.63;;;3.22;;
20036;SDS011;10179;42.640;23.312;2023-12-14T09:03:50;5.55;;;3.35;;
20036;SDS011;10179;42.640;23.312;2023-12-14T09:06:16;7.90;;;4.38;;
20036;SDS011;10179;42.640;23.312;2023-12-14T09:08:42;13.80;;;3.92;;
20036;SDS011;10179;42.640;23.312;2023-12-14T09:11:08;17.27;;;4.68;;
20036;SDS011;10179;42.640;23.312;2023-12-14T09:13:34;11.48;;;4.30;;
20036;SDS011;10179;42.640;23.312;2023-12-14T09:15:59;16.05;;;4.55;;
20036;SDS011;10179;42.640;23.312;2023-12-14T09:18:24;11.98;;;4.30;;
20036;SDS011;10179;42.640;23.312;2023-12-14T09:20:50;8.27;;;4.30;;
20036;SDS011;10179;42.640;23.312;2023-12-14T09:23:16;10.32;;;3.85;;
20036;SDS011;10179;42.640;23.312;2023-12-14T09:25:42;6.75;;;4.00;;
20036;SDS011;10179;42.640;23.312;2023-12-14T09:28:07;9.85;;;3.90;;
20036;SDS011;10179;42.640;23.312;2023-12-14T09:30:33;9.32;;;4.20;;
20036;SDS011;10179;42.640;23.312;2023-12-14T09:32:58;6.30;;;3.38;;
20036;SDS011;10179;42.640;23.312;2023-12-14T09:35:24;5.72;;;3.15;;
20036;SDS011;10179;42.640;23.312;2023-12-14T09:37:49;6.93;;;3.88;;
20036;SDS011;10179;42.640;23.312;2023-12-14T09:40:15;5.88;;;3.22;;
20036;SDS011;10179;42.640;23.312;2023-12-14T09:42:41;8.30;;;3.55;;
20036;SDS011;10179;42.640;23.312;2023-12-14T09:45:07;8.40;;;3.20;;
20036;SDS011;10179;42.640;23.312;2023-12-14T09:47:34;9.35;;;3.53;;
20036;SDS011;10179;42.640;23.312;2023-12-14T09:50:01;9.00;;;4.28;;
20036;SDS011;10179;42.640;23.312;2023-12-14T09:52:28;10.77;;;3.55;;
20036;SDS011;10179;42.640;23.312;2023-12-14T09:54:53;7.00;;;3.35;;
20036;SDS011;10179;42.640;23.312;2023-12-14T09:57:19;13.05;;;4.68;;
20036;SDS011;10179;42.640;23.312;2023-12-14T09:59:51;12.07;;;3.17;;
20036;SDS011;10179;42.640;23.312;2023-12-14T10:02:20;8.40;;;3.60;;
20036;SDS011;10179;42.640;23.312;2023-12-14T10:04:50;17.67;;;4.15;;
20036;SDS011;10179;42.640;23.312;2023-12-14T10:07:15;12.23;;;4.93;;
20036;SDS011;10179;42.640;23.312;2023-12-14T10:09:41;7.20;;;3.63;;
20036;SDS011;10179;42.640;23.312;2023-12-14T10:12:08;20.60;;;4.70;;
20036;SDS011;10179;42.640;23.312;2023-12-14T10:14:34;16.23;;;4.57;;
20036;SDS011;10179;42.640;23.312;2023-12-14T10:17:13;13.93;;;8.10;;
20036;SDS011;10179;42.640;23.312;2023-12-14T10:19:42;10.57;;;4.35;;
20036;SDS011;10179;42.640;23.312;2023-12-14T10:22:08;16.70;;;4.57;;
20036;SDS011;10179;42.640;23.312;2023-12-14T10:24:34;13.82;;;6.15;;
20036;SDS011;10179;42.640;23.312;2023-12-14T10:27:00;20.65;;;5.75;;
20036;SDS011;10179;42.640;23.312;2023-12-14T10:29:32;26.85;;;7.10;;
20036;SDS011;10179;42.640;23.312;2023-12-14T10:31:59;10.95;;;4.88;;
20036;SDS011;10179;42.640;23.312;2023-12-14T10:34:24;28.30;;;6.63;;
20036;SDS011;10179;42.640;23.312;2023-12-14T10:36:50;26.13;;;6.05;;
20036;SDS011;10179;42.640;23.312;2023-12-14T10:39:16;20.33;;;5.63;;
20036;SDS011;10179;42.640;23.312;2023-12-14T10:41:45;19.10;;;7.40;;
20036;SDS011;10179;42.640;23.312;2023-12-14T10:44:13;18.77;;;5.57;;
20036;SDS011;10179;42.640;23.312;2023-12-14T10:46:39;26.38;;;6.00;;
20036;SDS011;10179;42.640;23.312;2023-12-14T10:49:06;19.27;;;7.05;;
20036;SDS011;10179;42.640;23.312;2023-12-14T10:51:33;26.70;;;7.45;;
20036;SDS011;10179;42.640;23.312;2023-12-14T10:54:02;21.33;;;8.07;;
20036;SDS011;10179;42.640;23.312;2023-12-14T10:56:28;19.63;;;8.00;;
20036;SDS011;10179;42.640;23.312;2023-12-14T10:58:57;20.08;;;7.45;;
20036;SDS011;10179;42.640;23.312;2023-12-14T11:01:24;18.25;;;7.28;;
20036;SDS011;10179;42.640;23.312;2023-12-14T11:03:50;13.50;;;7.53;;
20036;SDS011;10179;42.640;23.312;2023-12-14T11:06:33;15.55;;;8.30;;
20036;SDS011;10179;42.640;23.312;2023-12-14T11:09:02;17.00;;;7.53;;
20036;SDS011;10179;42.640;23.312;2023-12-14T11:14:18;14.52;;;8.00;;
20036;SDS011;10179;42.640;23.312;2023-12-14T11:16:45;11.57;;;6.20;;
20036;SDS011;10179;42.640;23.312;2023-12-14T11:19:34;5.82;;;3.63;;
20036;SDS011;10179;42.640;23.312;2023-12-14T11:24:34;6.60;;;3.35;;
20036;SDS011;10179;42.640;23.312;2023-12-14T11:27:06;4.80;;;2.70;;
20036;SDS011;10179;42.640;23.312;2023-12-14T11:29:32;4.47;;;2.90;;
20036;SDS011;10179;42.640;23.312;2023-12-14T11:31:58;3.45;;;2.30;;
20036;SDS011;10179;42.640;23.312;2023-12-14T11:34:24;4.50;;;2.78;;
20036;SDS011;10179;42.640;23.312;2023-12-14T11:36:49;7.15;;;3.22;;
20036;SDS011;10179;42.640;23.312;2023-12-14T11:39:15;9.00;;;2.97;;
20036;SDS011;10179;42.640;23.312;2023-12-14T11:41:40;5.03;;;2.72;;
20036;SDS011;10179;42.640;23.312;2023-12-14T11:44:05;4.50;;;2.50;;
20036;SDS011;10179;42.640;23.312;2023-12-14T11:46:32;6.18;;;2.05;;
20036;SDS011;10179;42.640;23.312;2023-12-14T11:48:57;7.07;;;2.47;;
20036;SDS011;10179;42.640;23.312;2023-12-14T11:51:23;5.93;;;2.13;;
20036;SDS011;10179;42.640;23.312;2023-12-14T11:53:50;4.93;;;2.35;;
20036;SDS011;10179;42.640;23.312;2023-12-14T11:56:19;14.30;;;2.80;;
20036;SDS011;10179;42.640;23.312;2023-12-14T11:58:47;3.22;;;1.95;;
20036;SDS011;10179;42.640;23.312;2023-12-14T12:01:14;4.53;;;2.03;;
20036;SDS011;10179;42.640;23.312;2023-12-14T12:03:41;5.63;;;1.80;;
20036;SDS011;10179;42.640;23.312;2023-12-14T12:06:09;3.08;;;1.13;;
20036;SDS011;10179;42.640;23.312;2023-12-14T12:08:48;1.38;;;0.90;;
20036;SDS011;10179;42.640;23.312;2023-12-14T12:11:23;1.08;;;0.80;;
20036;SDS011;10179;42.640;23.312;2023-12-14T12:13:53;2.50;;;0.50;;
20036;SDS011;10179;42.640;23.312;2023-12-14T12:16:20;2.08;;;0.73;;
20036;SDS011;10179;42.640;23.312;2023-12-14T12:18:46;1.83;;;1.10;;
20036;SDS011;10179;42.640;23.312;2023-12-14T12:21:11;1.30;;;0.75;;
20036;SDS011;10179;42.640;23.312;2023-12-14T12:23:37;1.50;;;0.70;;
20036;SDS011;10179;42.640;23.312;2023-12-14T12:26:03;1.33;;;0.82;;
20036;SDS011;10179;42.640;23.312;2023-12-14T12:28:29;0.55;;;0.55;;
20036;SDS011;10179;42.640;23.312;2023-12-14T12:30:55;1.55;;;0.90;;
20036;SDS011;10179;42.640;23.312;2023-12-14T12:33:21;1.88;;;0.98;;
20036;SDS011;10179;42.640;23.312;2023-12-14T12:35:46;4.68;;;1.85;;
20036;SDS011;10179;42.640;23.312;2023-12-14T12:38:12;2.83;;;1.80;;
20036;SDS011;10179;42.640;23.312;2023-12-14T12:40:37;7.65;;;2.83;;
20036;SDS011;10179;42.640;23.312;2023-12-14T12:43:03;3.42;;;2.03;;
20036;SDS011;10179;42.640;23.312;2023-12-14T12:45:29;1.02;;;0.80;;
20036;SDS011;10179;42.640;23.312;2023-12-14T12:47:54;6.05;;;3.33;;
20036;SDS011;10179;42.640;23.312;2023-12-14T12:50:20;1.10;;;0.50;;
20036;SDS011;10179;42.640;23.312;2023-12-14T12:52:45;0.43;;;0.43;;
20036;SDS011;10179;42.640;23.312;2023-12-14T12:55:13;1.08;;;0.70;;
20036;SDS011;10179;42.640;23.312;2023-12-14T12:57:39;0.80;;;0.50;;
20036;SDS011;10179;42.640;23.312;2023-12-14T13:00:06;2.72;;;0.73;;
20036;SDS011;10179;42.640;23.312;2023-12-14T13:02:36;2.47;;;0.80;;
20036;SDS011;10179;42.640;23.312;2023-12-14T13:05:12;2.25;;;0.65;;
20036;SDS011;10179;42.640;23.312;2023-12-14T13:07:38;1.05;;;0.55;;
20036;SDS011;10179;42.640;23.312;2023-12-14T13:10:03;1.40;;;0.40;;
20036;SDS011;10179;42.640;23.312;2023-12-14T13:12:31;0.60;;;0.45;;
20036;SDS011;10179;42.640;23.312;2023-12-14T13:14:56;0.98;;;0.50;;
20036;SDS011;10179;42.640;23.312;2023-12-14T13:17:21;1.70;;;0.75;;
20036;SDS011;10179;42.640;23.312;2023-12-14T13:19:48;0.90;;;0.60;;
20036;SDS011;10179;42.640;23.312;2023-12-14T13:22:13;2.75;;;0.60;;
20036;SDS011;10179;42.640;23.312;2023-12-14T13:24:39;1.63;;;0.60;;
20036;SDS011;10179;42.640;23.312;2023-12-14T13:27:04;0.68;;;0.50;;
20036;SDS011;10179;42.640;23.312;2023-12-14T13:29:31;0.60;;;0.43;;
20036;SDS011;10179;42.640;23.312;2023-12-14T13:31:58;1.40;;;0.40;;
20036;SDS011;10179;42.640;23.312;2023-12-14T13:34:24;1.08;;;0.73;;
20036;SDS011;10179;42.640;23.312;2023-12-14T13:36:50;0.93;;;0.60;;
20036;SDS011;10179;42.640;23.312;2023-12-14T13:39:15;0.88;;;0.60;;
20036;SDS011;10179;42.640;23.312;2023-12-14T13:41:41;1.98;;;0.93;;
20036;SDS011;10179;42.640;23.312;2023-12-14T13:44:07;0.52;;;0.40;;
20036;SDS011;10179;42.640;23.312;2023-12-14T13:46:32;0.88;;;0.50;;
20036;SDS011;10179;42.640;23.312;2023-12-14T13:48:57;0.43;;;0.30;;
20036;SDS011;10179;42.640;23.312;2023-12-14T13:51:23;1.05;;;0.80;;
20036;SDS011;10179;42.640;23.312;2023-12-14T13:53:48;1.05;;;0.57;;
20036;SDS011;10179;42.640;23.312;2023-12-14T13:56:13;0.68;;;0.57;;
20036;SDS011;10179;42.640;23.312;2023-12-14T13:58:39;1.00;;;0.68;;
20036;SDS011;10179;42.640;23.312;2023-12-14T14:01:07;2.05;;;0.40;;
20036;SDS011;10179;42.640;23.312;2023-12-14T14:03:33;0.30;;;0.30;;
20036;SDS011;10179;42.640;23.312;2023-12-14T14:06:00;4.30;;;0.40;;
20036;SDS011;10179;42.640;23.312;2023-12-14T14:08:27;0.82;;;0.20;;
20036;SDS011;10179;42.640;23.312;2023-12-14T14:10:52;1.95;;;0.40;;
20036;SDS011;10179;42.640;23.312;2023-12-14T14:13:17;0.40;;;0.30;;
20036;SDS011;10179;42.640;23.312;2023-12-14T14:15:43;0.38;;;0.30;;
20036;SDS011;10179;42.640;23.312;2023-12-14T14:18:08;1.98;;;0.30;;
20036;SDS011;10179;42.640;23.312;2023-12-14T14:20:34;0.20;;;0.20;;
20036;SDS011;10179;42.640;23.312;2023-12-14T14:23:00;0.55;;;0.32;;
20036;SDS011;10179;42.640;23.312;2023-12-14T14:25:26;0.50;;;0.38;;
20036;SDS011;10179;42.640;23.312;2023-12-14T14:27:51;4.78;;;0.50;;
20036;SDS011;10179;42.640;23.312;2023-12-14T14:30:17;0.30;;;0.30;;